Time;durP1;ratioP1;P1;durP2;ratioP2;P2;SDS_P1;SDS_P2;PMS_P1;PMS_P2;Temp;Humidity;BMP_temperature;BMP_pressure;BME280_temperature;BME280_humidity;BME280_pressure;Samples;Min_cycle;Max_cycle;Signal;HPM_P1;HPM_P2
2024/02/02 00:00:29;;;;;;;;;9.33;8.33;;;;;14.47;100.00;102881.66;2095204;28;46183;-69
2024/02/02 00:01:30;;;;;;;;;8.33;8.00;;;;;14.48;100.00;102878.06;2094887;28;46466;-71
2024/02/02 00:02:37;;;;;;;;;8.50;7.00;;;;;14.43;100.00;102884.28;2096112;28;46269;-71
2024/02/02 00:03:37;;;;;;;;;7.50;7.50;;;;;14.43;100.00;102878.06;2096482;28;46716;-71
2024/02/02 00:04:38;;;;;;;;;7.00;7.00;;;;;14.40;100.00;102876.31;2094406;28;46376;-71
2024/02/02 00:05:38;;;;;;;;;7.00;6.00;;;;;14.57;100.00;102878.94;2095109;28;46638;-71
2024/02/02 00:06:38;;;;;;;;;10.33;10.33;;;;;14.51;100.00;102891.44;2096893;28;46102;-73
2024/02/02 00:07:39;;;;;;;;;9.00;8.67;;;;;14.41;100.00;102885.19;2095904;28;46781;-72
2024/02/02 00:08:39;;;;;;;;;5.00;5.00;;;;;14.51;100.00;102883.44;2095962;28;46845;-73
2024/02/02 00:09:39;;;;;;;;;8.33;8.00;;;;;14.55;100.00;102887.84;2096162;28;45873;-70
2024/02/02 00:10:40;;;;;;;;;8.33;8.00;;;;;14.53;100.00;102879.84;2096188;28;45796;-70
2024/02/02 00:11:41;;;;;;;;;7.33;7.33;;;;;14.55;100.00;102879.84;2096792;28;46193;-70
2024/02/02 00:12:41;;;;;;;;;7.33;7.33;;;;;14.54;100.00;102873.63;2095359;28;46242;-72
2024/02/02 00:13:41;;;;;;;;;8.67;7.33;;;;;14.54;100.00;102876.28;2096229;28;46645;-72
2024/02/02 00:14:42;;;;;;;;;10.67;10.67;;;;;14.55;100.00;102878.06;2095667;28;46350;-72
2024/02/02 00:15:42;;;;;;;;;9.00;8.00;;;;;14.57;100.00;102880.72;2096144;28;46392;-71
2024/02/02 00:16:43;;;;;;;;;12.00;8.67;;;;;14.58;100.00;102877.16;2096214;28;45999;-71
2024/02/02 00:17:43;;;;;;;;;7.67;7.67;;;;;14.57;100.00;102883.41;2097062;28;46244;-71
2024/02/02 00:18:43;;;;;;;;;8.50;7.50;;;;;14.56;100.00;102887.84;2094492;28;45986;-72
2024/02/02 00:19:44;;;;;;;;;8.33;8.33;;;;;14.58;100.00;102887.84;2095207;28;45973;-71
2024/02/02 00:20:44;;;;;;;;;8.33;8.33;;;;;14.58;100.00;102883.38;2096112;28;46396;-70
2024/02/02 00:21:44;;;;;;;;;10.00;8.00;;;;;14.58;100.00;102882.50;2095348;28;46520;-73
2024/02/02 00:22:45;;;;;;;;;7.67;7.67;;;;;14.58;100.00;102879.81;2095187;28;47036;-72
2024/02/02 00:23:45;;;;;;;;;12.33;8.00;;;;;14.60;100.00;102883.38;2095806;28;47071;-71
2024/02/02 00:24:45;;;;;;;;;11.33;8.33;;;;;14.59;100.00;102882.50;2096218;28;46329;-73
2024/02/02 00:25:46;;;;;;;;;7.00;6.67;;;;;14.60;100.00;102875.34;2096376;28;47189;-71
2024/02/02 00:26:46;;;;;;;;;8.33;8.33;;;;;14.57;100.00;102870.91;2095622;28;46477;-72
2024/02/02 00:27:46;;;;;;;;;11.00;9.33;;;;;14.56;100.00;102873.59;2096295;28;46802;-69
2024/02/02 00:28:46;;;;;;;;;8.00;8.00;;;;;14.56;100.00;102878.94;2096246;28;45600;-71
2024/02/02 00:29:47;;;;;;;;;8.00;8.00;;;;;14.54;100.00;102873.63;2095926;28;47464;-72
2024/02/02 00:30:47;;;;;;;;;6.33;6.33;;;;;14.54;100.00;102884.31;2095946;28;46516;-71
2024/02/02 00:31:47;;;;;;;;;7.67;6.00;;;;;14.55;100.00;102877.16;2093459;28;46507;-71
2024/02/02 00:32:48;;;;;;;;;6.00;6.00;;;;;14.54;100.00;102884.31;2095053;28;46041;-71
2024/02/02 00:33:48;;;;;;;;;8.00;6.67;;;;;14.56;100.00;102882.50;2095561;28;46689;-73
2024/02/02 00:34:49;;;;;;;;;12.33;10.00;;;;;14.60;100.00;102875.34;2095122;28;46529;-70
2024/02/02 00:35:49;;;;;;;;;9.33;8.00;;;;;14.59;100.00;102873.59;2096231;28;46733;-72
2024/02/02 00:36:49;;;;;;;;;10.67;8.67;;;;;14.64;100.00;102880.72;2096024;28;46616;-72
2024/02/02 00:37:50;;;;;;;;;9.00;8.00;;;;;14.64;100.00;102874.47;2096106;28;46357;-70
2024/02/02 00:38:51;;;;;;;;;8.67;8.67;;;;;14.66;100.00;102886.03;2094916;28;45546;-72
2024/02/02 00:39:51;;;;;;;;;7.67;7.00;;;;;14.65;100.00;102887.81;2095723;28;46065;-72
2024/02/02 00:40:51;;;;;;;;;9.00;9.00;;;;;14.64;100.00;102887.84;2096467;28;46252;-72
2024/02/02 00:41:51;;;;;;;;;10.00;10.00;;;;;14.64;100.00;102891.41;2095986;28;46352;-72
2024/02/02 00:42:52;;;;;;;;;11.33;9.67;;;;;14.63;100.00;102889.63;2096143;28;45811;-73
2024/02/02 00:43:52;;;;;;;;;7.67;7.33;;;;;14.61;100.00;102887.81;2095887;28;46304;-72
2024/02/02 00:44:53;;;;;;;;;12.67;9.33;;;;;14.58;100.00;102888.72;2095537;28;46484;-71
2024/02/02 00:45:53;;;;;;;;;10.67;9.00;;;;;14.57;100.00;102886.06;2095579;28;46872;-71
2024/02/02 00:46:53;;;;;;;;;11.33;11.00;;;;;14.55;100.00;102886.06;2095947;28;46331;-72
2024/02/02 00:47:54;;;;;;;;;7.33;6.00;;;;;14.55;100.00;102886.06;2095764;28;46664;-74
2024/02/02 00:48:54;;;;;;;;;8.00;8.00;;;;;14.55;100.00;102888.75;2101981;27;46264;-72
2024/02/02 00:49:54;;;;;;;;;8.67;7.33;;;;;14.54;100.00;102886.97;2103791;28;46251;-72
2024/02/02 00:50:55;;;;;;;;;13.00;11.00;;;;;14.55;100.00;102886.06;2094624;28;46296;-73
2024/02/02 00:51:55;;;;;;;;;11.33;11.00;;;;;14.52;100.00;102880.75;2094695;28;46464;-72
2024/02/02 00:52:55;;;;;;;;;7.67;7.67;;;;;14.51;100.00;102878.09;2095699;28;47309;-72
2024/02/02 00:53:56;;;;;;;;;9.00;8.67;;;;;14.52;100.00;102877.19;2096434;28;46516;-72
2024/02/02 00:54:56;;;;;;;;;12.00;9.00;;;;;14.49;100.00;102871.88;2095925;28;46271;-70
2024/02/02 00:55:56;;;;;;;;;10.67;9.00;;;;;14.50;100.00;102869.19;2094729;28;46944;-71
2024/02/02 00:56:57;;;;;;;;;11.00;11.00;;;;;14.49;100.00;102869.19;2096496;28;45538;-73
2024/02/02 00:57:57;;;;;;;;;9.67;9.67;;;;;14.47;100.00;102866.50;2095882;28;45868;-73
2024/02/02 00:58:57;;;;;;;;;10.67;9.00;;;;;14.48;100.00;102864.72;2096122;28;46559;-72
2024/02/02 00:59:57;;;;;;;;;1.33;1.00;;;;;14.51;100.00;102867.41;2095735;28;46611;-70
2024/02/02 01:00:58;;;;;;;;;10.67;10.00;;;;;14.51;100.00;102868.28;2096048;28;46969;-72
2024/02/02 01:01:58;;;;;;;;;11.33;10.33;;;;;14.52;100.00;102859.38;2096082;28;46692;-71
2024/02/02 01:02:59;;;;;;;;;9.67;9.00;;;;;14.52;100.00;102869.19;2095931;28;46670;-72
2024/02/02 01:04:01;;;;;;;;;8.33;8.00;;;;;14.52;100.00;102867.41;2095962;28;46565;-72
2024/02/02 01:05:02;;;;;;;;;11.00;10.50;;;;;14.53;100.00;102868.28;2094428;28;46372;-71
2024/02/02 01:06:03;;;;;;;;;12.67;12.33;;;;;14.52;100.00;102864.72;2103651;28;46319;-73
2024/02/02 01:07:04;;;;;;;;;11.00;10.50;;;;;14.48;100.00;102867.38;2103512;28;47171;-72
2024/02/02 01:08:05;;;;;;;;;14.33;12.00;;;;;14.52;100.00;102867.41;2095674;28;46152;-71
2024/02/02 01:09:05;;;;;;;;;10.75;9.75;;;;;14.52;100.00;102867.41;2095768;28;46789;-71
2024/02/02 01:10:06;;;;;;;;;12.00;10.00;;;;;14.52;100.00;102862.06;2096238;28;45593;-73
2024/02/02 01:11:06;;;;;;;;;12.75;12.75;;;;;14.52;100.00;102863.84;2095723;28;45725;-73
2024/02/02 01:12:08;;;;;;;;;10.33;10.33;;;;;14.51;100.00;102868.28;2095818;28;46633;-70
2024/02/02 01:13:09;;;;;;;;;9.50;9.50;;;;;14.48;100.00;102868.28;2095005;28;46928;-71
2024/02/02 01:14:09;;;;;;;;;14.33;13.00;;;;;14.46;100.00;102870.06;2095096;28;46635;-71
2024/02/02 01:15:10;;;;;;;;;11.00;10.00;;;;;14.47;100.00;102868.28;2095358;28;47363;-72
2024/02/02 01:16:10;;;;;;;;;16.25;13.50;;;;;14.46;100.00;102872.75;2095568;28;47021;-70
2024/02/02 01:17:11;;;;;;;;;12.33;11.67;;;;;14.45;100.00;102868.28;2095763;28;46606;-70
2024/02/02 01:18:14;;;;;;;;;15.67;10.00;;;;;14.44;100.00;102863.84;2095504;28;46164;-70
2024/02/02 01:19:15;;;;;;;;;14.50;12.50;;;;;14.44;100.00;102863.84;2095442;28;46724;-70
2024/02/02 01:20:15;;;;;;;;;13.67;13.00;;;;;14.43;100.00;102864.72;2095579;28;46615;-72
2024/02/02 01:21:16;;;;;;;;;12.67;12.67;;;;;14.38;100.00;102863.84;2095015;28;46636;-72
2024/02/02 01:22:16;;;;;;;;;15.00;13.67;;;;;14.38;100.00;102861.19;2094439;28;46326;-72
2024/02/02 01:23:16;;;;;;;;;11.33;11.33;;;;;14.35;100.00;102863.84;2095873;28;46397;-71
2024/02/02 01:24:17;;;;;;;;;12.33;12.33;;;;;14.35;100.00;102858.50;2095383;28;46375;-71
2024/02/02 01:25:18;;;;;;;;;16.67;12.33;;;;;14.34;100.00;102865.63;2095396;28;46728;-72
2024/02/02 01:26:18;;;;;;;;;14.50;12.25;;;;;14.31;100.00;102865.63;2096222;28;47901;-71
2024/02/02 01:27:19;;;;;;;;;12.67;12.00;;;;;14.31;100.00;102870.97;2095742;28;46824;-70
2024/02/02 01:28:19;;;;;;;;;13.00;12.33;;;;;14.32;100.00;102864.75;2095783;28;46300;-70
2024/02/02 01:29:19;;;;;;;;;13.00;11.33;;;;;14.33;100.00;102869.19;2094749;28;46474;-72
2024/02/02 01:30:20;;;;;;;;;15.67;11.00;;;;;14.31;100.00;102865.63;2095260;28;46061;-72
2024/02/02 01:31:20;;;;;;;;;14.33;14.33;;;;;14.30;100.00;102869.19;2095741;28;46486;-72
2024/02/02 01:32:20;;;;;;;;;19.33;14.33;;;;;14.28;100.00;102865.66;2095961;28;45916;-73
2024/02/02 01:33:21;;;;;;;;;16.00;12.67;;;;;14.25;100.00;102863.00;2095825;28;45281;-74
2024/02/02 01:34:22;;;;;;;;;18.00;15.00;;;;;14.22;100.00;102867.44;2095807;28;46740;-72
2024/02/02 01:35:22;;;;;;;;;14.25;14.25;;;;;14.22;100.00;102865.66;2095714;28;47334;-72
2024/02/02 01:36:23;;;;;;;;;14.67;14.67;;;;;14.19;100.00;102865.66;2096343;28;46581;-72
2024/02/02 01:37:23;;;;;;;;;13.00;13.00;;;;;14.16;100.00;102863.00;2094494;28;45395;-70
2024/02/02 01:38:23;;;;;;;;;14.00;14.00;;;;;14.17;100.00;102861.22;2094492;28;46400;-71
2024/02/02 01:39:24;;;;;;;;;14.00;13.00;;;;;14.17;100.00;102866.56;2095106;28;45232;-71
2024/02/02 01:40:24;;;;;;;;;14.67;12.00;;;;;14.16;100.00;102856.78;2094945;28;46518;-72
2024/02/02 01:41:24;;;;;;;;;11.67;11.67;;;;;14.17;100.00;102855.88;2095622;28;46288;-73
2024/02/02 01:42:25;;;;;;;;;16.00;14.00;;;;;14.17;100.00;102862.13;2095767;28;47034;-72
2024/02/02 01:43:26;;;;;;;;;15.00;13.00;;;;;14.16;100.00;102848.78;2095149;28;46403;-71
2024/02/02 01:44:26;;;;;;;;;15.00;13.33;;;;;14.16;100.00;102862.13;2095207;28;45776;-72
2024/02/02 01:45:27;;;;;;;;;13.67;13.00;;;;;14.17;100.00;102858.56;2095345;28;45902;-73
2024/02/02 01:46:27;;;;;;;;;15.50;13.75;;;;;14.18;100.00;102858.56;2095247;28;45546;-75
2024/02/02 01:47:27;;;;;;;;;14.33;13.33;;;;;14.19;100.00;102862.09;2096308;28;46320;-73
2024/02/02 01:48:27;;;;;;;;;16.67;15.67;;;;;14.19;100.00;102859.44;2095248;28;46451;-72
2024/02/02 01:49:28;;;;;;;;;15.33;13.33;;;;;14.17;100.00;102862.13;2095742;28;45744;-74
2024/02/02 01:50:28;;;;;;;;;15.33;15.00;;;;;14.15;100.00;102858.56;2095234;28;46185;-73
2024/02/02 01:51:29;;;;;;;;;13.33;12.00;;;;;14.16;100.00;102863.00;2093897;28;46331;-70
2024/02/02 01:52:30;;;;;;;;;9.67;8.00;;;;;14.12;100.00;102870.16;2094793;28;46434;-73
2024/02/02 01:53:30;;;;;;;;;13.25;13.00;;;;;14.13;100.00;102866.59;2095537;28;46364;-74
2024/02/02 01:54:31;;;;;;;;;12.67;12.00;;;;;14.13;100.00;102871.94;2095512;28;46470;-73
2024/02/02 01:55:31;;;;;;;;;15.67;15.00;;;;;14.14;100.00;102876.38;2094201;28;45932;-73
2024/02/02 01:56:32;;;;;;;;;15.33;12.33;;;;;14.15;100.00;102871.91;2095625;28;45484;-71
2024/02/02 01:57:32;;;;;;;;;15.00;13.33;;;;;14.12;100.00;102864.81;2095706;28;46909;-73
2024/02/02 01:58:33;;;;;;;;;14.00;12.00;;;;;14.18;100.00;102874.56;2095635;28;46423;-73
2024/02/02 01:59:33;;;;;;;;;14.67;13.33;;;;;14.16;100.00;102870.13;2095324;28;46863;-73
2024/02/02 02:00:35;;;;;;;;;13.00;13.00;;;;;14.19;100.00;102872.78;2095523;28;45392;-73
2024/02/02 02:01:36;;;;;;;;;16.25;14.25;;;;;14.21;100.00;102877.22;2095143;28;47702;-73
2024/02/02 02:02:36;;;;;;;;;18.67;16.67;;;;;14.21;100.00;102874.56;2094189;28;46159;-74
2024/02/02 02:03:37;;;;;;;;;18.33;13.67;;;;;14.22;100.00;102876.34;2094217;28;46311;-73
2024/02/02 02:04:42;;;;;;;;;14.33;14.33;;;;;14.23;100.00;102867.47;2094058;28;46152;-74
2024/02/02 02:05:43;;;;;;;;;13.75;13.50;;;;;14.25;100.00;102870.13;2096109;28;45231;-71
2024/02/02 02:06:43;;;;;;;;;15.33;14.33;;;;;14.23;100.00;102864.78;2095216;28;46712;-74
2024/02/02 02:07:45;;;;;;;;;14.00;14.00;;;;;14.23;100.00;102866.53;2095851;28;46258;-72
2024/02/02 02:08:46;;;;;;;;;16.00;14.50;;;;;14.22;100.00;102870.09;2095353;28;45850;-72
2024/02/02 02:09:46;;;;;;;;;20.50;17.25;;;;;14.21;100.00;102874.56;2095554;28;46287;-73
2024/02/02 02:10:47;;;;;;;;;13.67;13.67;;;;;14.21;100.00;102871.00;2095423;28;45931;-74
2024/02/02 02:11:47;;;;;;;;;18.33;16.00;;;;;14.21;100.00;102873.66;2095421;28;46537;-71
2024/02/02 02:12:50;;;;;;;;;18.00;16.67;;;;;14.22;100.00;102870.09;2093755;28;46339;-72
2024/02/02 02:13:51;;;;;;;;;21.20;19.00;;;;;14.22;100.00;102870.09;2094998;28;46769;-71
2024/02/02 02:14:51;;;;;;;;;17.33;17.33;;;;;14.22;100.00;102868.31;2095279;28;46367;-73
2024/02/02 02:15:53;;;;;;;;;15.67;14.67;;;;;14.22;100.00;102862.97;2094877;28;45892;-73
2024/02/02 02:16:53;;;;;;;;;14.25;14.25;;;;;14.20;100.00;102864.78;2094489;28;46325;-72
2024/02/02 02:17:54;;;;;;;;;16.00;16.00;;;;;14.19;100.00;102859.44;2095819;28;46304;-72
2024/02/02 02:18:54;;;;;;;;;17.00;15.33;;;;;14.18;100.00;102863.00;2095111;28;45919;-71
2024/02/02 02:19:58;;;;;;;;;14.33;14.33;;;;;14.18;100.00;102857.66;2095373;28;46863;-70
2024/02/02 02:21:20;;;;;;;;;14.25;13.00;;;;;14.18;100.00;102858.56;2094173;28;46465;-71
2024/02/02 02:22:20;;;;;;;;;13.75;12.00;;;;;14.20;100.00;102866.56;2095034;28;46703;-73
2024/02/02 02:23:21;;;;;;;;;12.00;11.33;;;;;14.16;100.00;102865.69;2094833;28;46634;-71
2024/02/02 02:24:21;;;;;;;;;13.00;13.00;;;;;14.21;100.00;102858.53;2094791;28;47560;-70
2024/02/02 02:25:21;;;;;;;;;20.33;17.67;;;;;14.18;100.00;102858.56;2095468;28;46696;-73
2024/02/02 02:26:22;;;;;;;;;20.67;18.00;;;;;14.17;100.00;102859.44;2095250;28;46495;-72
2024/02/02 02:27:23;;;;;;;;;21.00;18.00;;;;;14.20;100.00;102858.53;2095536;28;46199;-71
2024/02/02 02:28:23;;;;;;;;;25.00;20.67;;;;;14.23;100.00;102858.53;2086550;28;45217;-71
2024/02/02 02:29:23;;;;;;;;;23.00;19.67;;;;;14.24;100.00;102863.00;2086416;28;46685;-71
2024/02/02 02:30:24;;;;;;;;;23.33;19.00;;;;;14.24;100.00;102858.56;2093702;28;46742;-71
2024/02/02 02:31:24;;;;;;;;;19.00;17.67;;;;;14.23;100.00;102859.44;2094500;28;45949;-72
2024/02/02 02:32:24;;;;;;;;;18.33;17.33;;;;;14.24;100.00;102858.56;2094522;28;45600;-73
2024/02/02 02:33:24;;;;;;;;;18.00;18.00;;;;;14.24;100.00;102852.31;2094332;28;46924;-71
2024/02/02 02:34:26;;;;;;;;;21.00;20.00;;;;;14.22;100.00;102848.75;2095939;28;46806;-72
2024/02/02 02:35:26;;;;;;;;;21.75;19.50;;;;;14.22;100.00;102859.41;2094093;28;46186;-74
2024/02/02 02:36:27;;;;;;;;;18.00;16.00;;;;;14.22;100.00;102862.09;2093450;28;47060;-71
2024/02/02 02:37:27;;;;;;;;;17.00;15.33;;;;;14.23;100.00;102854.09;2093615;28;46499;-74
2024/02/02 02:38:27;;;;;;;;;16.67;16.67;;;;;14.20;100.00;102853.19;2094926;28;46391;-71
2024/02/02 02:39:28;;;;;;;;;16.33;16.33;;;;;14.20;100.00;102853.19;2094868;28;46749;-72
2024/02/02 02:40:28;;;;;;;;;14.67;14.00;;;;;14.19;100.00;102856.78;2095249;28;46335;-72
2024/02/02 02:41:28;;;;;;;;;17.33;17.33;;;;;14.17;100.00;102855.88;2095851;28;45816;-72
2024/02/02 02:42:29;;;;;;;;;17.00;17.00;;;;;14.19;100.00;102864.78;2095605;28;46311;-73
2024/02/02 02:43:30;;;;;;;;;17.67;17.00;;;;;14.17;100.00;102859.44;2095355;28;46926;-72
2024/02/02 02:44:30;;;;;;;;;19.25;16.75;;;;;14.20;100.00;102856.75;2094872;28;45802;-73
2024/02/02 02:45:31;;;;;;;;;16.67;15.33;;;;;14.17;100.00;102859.44;2095247;28;47760;-73
2024/02/02 02:46:31;;;;;;;;;14.67;13.67;;;;;14.19;100.00;102860.31;2095380;28;46369;-71
2024/02/02 02:47:31;;;;;;;;;14.00;13.33;;;;;14.17;100.00;102855.88;2093921;28;46599;-71
2024/02/02 02:48:32;;;;;;;;;15.67;15.67;;;;;14.11;100.00;102857.69;2094526;28;46484;-71
2024/02/02 02:49:33;;;;;;;;;15.75;15.75;;;;;14.09;100.00;102854.09;2094688;28;46591;-72
2024/02/02 02:50:33;;;;;;;;;17.33;16.67;;;;;14.08;100.00;102844.31;2094577;28;46362;-73
2024/02/02 02:51:34;;;;;;;;;18.67;18.67;;;;;14.08;100.00;102844.31;2101462;28;45764;-71
2024/02/02 02:52:34;;;;;;;;;18.67;17.67;;;;;14.09;100.00;102842.53;2102350;28;46387;-71
2024/02/02 02:53:35;;;;;;;;;14.67;11.33;;;;;14.07;100.00;102847.91;2095144;28;47759;-72
2024/02/02 02:54:35;;;;;;;;;16.00;16.00;;;;;14.08;100.00;102848.78;2094852;28;46655;-70
2024/02/02 02:55:35;;;;;;;;;16.67;15.67;;;;;14.08;100.00;102839.00;2095141;28;46662;-73
2024/02/02 02:56:36;;;;;;;;;17.00;15.67;;;;;14.08;100.00;102844.31;2094585;28;46633;-71
2024/02/02 02:57:36;;;;;;;;;18.67;17.33;;;;;14.06;100.00;102838.09;2095027;28;46530;-71
2024/02/02 02:58:36;;;;;;;;;22.33;18.33;;;;;14.06;100.00;102834.53;2094921;28;46774;-70
2024/02/02 02:59:37;;;;;;;;;19.33;16.67;;;;;14.01;100.00;102831.91;2094799;28;46482;-71
2024/02/02 03:00:37;;;;;;;;;19.25;18.50;;;;;13.98;100.00;102831.91;2095019;28;46152;-70
2024/02/02 03:01:38;;;;;;;;;23.00;17.67;;;;;13.97;100.00;102830.09;2095276;28;46187;-72
2024/02/02 03:02:38;;;;;;;;;19.67;19.33;;;;;13.97;100.00;102824.78;2094982;28;46923;-73
2024/02/02 03:03:38;;;;;;;;;20.67;19.00;;;;;13.97;100.00;102824.78;2095150;28;46710;-71
2024/02/02 03:04:39;;;;;;;;;22.00;20.33;;;;;13.97;100.00;102823.88;2093970;28;47804;-71
2024/02/02 03:05:39;;;;;;;;;18.67;18.67;;;;;13.97;100.00;102830.09;2095169;28;46219;-72
2024/02/02 03:06:40;;;;;;;;;19.67;18.33;;;;;13.99;100.00;102835.47;2094930;28;46968;-72
2024/02/02 03:07:40;;;;;;;;;23.33;21.67;;;;;13.98;100.00;102828.34;2094399;28;46155;-72
2024/02/02 03:08:40;;;;;;;;;24.67;24.00;;;;;13.94;100.00;102829.22;2094689;28;45562;-72
2024/02/02 03:09:41;;;;;;;;;25.33;24.33;;;;;13.93;100.00;102831.00;2094942;28;46246;-71
2024/02/02 03:10:41;;;;;;;;;23.67;20.67;;;;;13.91;100.00;102839.94;2095078;28;46309;-71
2024/02/02 03:11:42;;;;;;;;;27.33;24.00;;;;;13.91;100.00;102837.25;2094232;28;46496;-71
2024/02/02 03:12:42;;;;;;;;;23.33;23.00;;;;;13.90;100.00;102832.81;2095702;28;45928;-71
2024/02/02 03:13:42;;;;;;;;;21.33;19.00;;;;;13.92;100.00;102839.03;2096779;28;46517;-71
2024/02/02 03:14:43;;;;;;;;;22.33;20.67;;;;;13.91;100.00;102845.25;2096071;28;47069;-72
2024/02/02 03:15:43;;;;;;;;;23.25;23.00;;;;;13.90;100.00;102840.81;2096679;28;45648;-71
2024/02/02 03:16:43;;;;;;;;;21.33;20.33;;;;;13.91;100.00;102837.25;2096841;28;46770;-68
2024/02/02 03:17:43;;;;;;;;;24.00;22.33;;;;;13.90;100.00;102838.16;2096377;28;45640;-69
2024/02/02 03:18:44;;;;;;;;;29.67;25.67;;;;;13.90;100.00;102835.47;2096676;28;46507;-70
2024/02/02 03:19:44;;;;;;;;;23.67;22.00;;;;;13.89;100.00;102831.03;2096685;28;45585;-70
2024/02/02 03:20:44;;;;;;;;;22.00;22.00;;;;;13.86;100.00;102831.94;2095517;28;46996;-70
2024/02/02 03:21:45;;;;;;;;;22.25;22.25;;;;;13.83;100.00;102827.47;2097111;28;46632;-69
2024/02/02 03:22:46;;;;;;;;;22.33;20.33;;;;;13.82;100.00;102822.13;2096577;28;45885;-70
2024/02/02 03:23:46;;;;;;;;;25.00;25.00;;;;;13.80;100.00;102816.81;2095787;28;46150;-69
2024/02/02 03:24:46;;;;;;;;;27.33;26.00;;;;;13.79;100.00;102823.03;2095763;28;46415;-70
2024/02/02 03:25:47;;;;;;;;;24.67;22.33;;;;;13.77;100.00;102819.50;2086402;28;46359;-70
2024/02/02 03:26:47;;;;;;;;;22.00;20.33;;;;;13.78;100.00;102815.91;2086936;28;46838;-71
2024/02/02 03:27:47;;;;;;;;;25.75;25.00;;;;;13.78;100.00;102817.72;2096089;28;46639;-70
2024/02/02 03:28:47;;;;;;;;;25.75;24.75;;;;;13.78;100.00;102821.25;2096169;28;45212;-70
2024/02/02 03:29:48;;;;;;;;;22.50;20.25;;;;;13.77;100.00;102816.81;2097016;28;47282;-70
2024/02/02 03:30:48;;;;;;;;;24.00;23.50;;;;;13.78;100.00;102815.91;2096423;28;45093;-70
2024/02/02 03:31:48;;;;;;;;;24.50;22.50;;;;;13.77;100.00;102824.81;2096041;28;46379;-70
2024/02/02 03:32:49;;;;;;;;;22.00;20.50;;;;;13.76;100.00;102817.72;2096331;28;46178;-69
2024/02/02 03:33:49;;;;;;;;;24.00;22.50;;;;;13.76;100.00;102816.81;2095702;28;46463;-70
2024/02/02 03:34:50;;;;;;;;;25.50;23.50;;;;;13.75;100.00;102815.03;2096120;28;46423;-69
2024/02/02 03:35:50;;;;;;;;;25.00;22.50;;;;;13.76;100.00;102815.03;2096191;28;46222;-70
2024/02/02 03:36:51;;;;;;;;;25.00;24.00;;;;;13.74;100.00;102810.59;2096423;28;46962;-70
2024/02/02 03:37:51;;;;;;;;;24.25;22.00;;;;;13.75;100.00;102810.59;2095166;28;46424;-69
2024/02/02 03:38:51;;;;;;;;;23.00;23.00;;;;;13.75;100.00;102815.03;2096782;28;47321;-69
2024/02/02 03:39:51;;;;;;;;;25.00;23.75;;;;;13.74;100.00;102808.81;2096858;28;46252;-69
2024/02/02 03:40:53;;;;;;;;;25.20;23.60;;;;;13.75;100.00;102812.38;2096724;28;46507;-72
2024/02/02 03:41:53;;;;;;;;;27.50;24.25;;;;;13.74;100.00;102810.59;2096575;28;46369;-68
2024/02/02 03:42:53;;;;;;;;;25.00;23.00;;;;;13.75;100.00;102812.38;2095736;28;46409;-71
2024/02/02 03:43:56;;;;;;;;;26.25;23.00;;;;;13.75;100.00;102799.94;2095609;28;46448;-70
2024/02/02 03:44:57;;;;;;;;;21.25;20.25;;;;;13.75;100.00;102801.72;2096560;28;46715;-70
2024/02/02 03:45:57;;;;;;;;;22.33;22.33;;;;;13.74;100.00;102803.47;2095677;28;46747;-69
2024/02/02 03:46:57;;;;;;;;;22.33;21.33;;;;;13.73;100.00;102803.50;2096446;28;46093;-70
2024/02/02 03:48:00;;;;;;;;;24.33;21.33;;;;;13.73;100.00;102806.16;2086561;28;46184;-70
2024/02/02 03:49:00;;;;;;;;;21.75;20.00;;;;;13.72;100.00;102802.59;2087297;28;46591;-71
2024/02/02 03:50:00;;;;;;;;;22.33;22.00;;;;;13.67;100.00;102798.16;2096201;28;46290;-69
2024/02/02 03:51:01;;;;;;;;;14.67;12.00;;;;;13.70;100.00;102806.13;2096364;28;46797;-71
2024/02/02 03:52:05;;;;;;;;;24.67;23.33;;;;;13.70;100.00;102798.13;2096443;28;46662;-70
2024/02/02 03:53:05;;;;;;;;;14.25;14.25;;;;;13.68;100.00;102803.47;2096186;28;46379;-70
2024/02/02 03:54:06;;;;;;;;;21.67;20.67;;;;;13.73;100.00;102800.81;2096144;28;46196;-70
2024/02/02 03:55:06;;;;;;;;;22.33;19.00;;;;;13.73;100.00;102803.50;2094741;28;46611;-69
2024/02/02 03:56:07;;;;;;;;;16.00;15.67;;;;;13.74;100.00;102807.94;2095839;28;46533;-70
2024/02/02 03:57:07;;;;;;;;;20.00;17.33;;;;;13.74;100.00;102805.28;2095711;28;47386;-70
2024/02/02 03:58:07;;;;;;;;;18.67;17.00;;;;;13.71;100.00;102803.47;2095445;28;46122;-71
2024/02/02 03:59:09;;;;;;;;;20.33;16.33;;;;;13.74;100.00;102799.94;2095490;28;46329;-71
2024/02/02 04:00:09;;;;;;;;;22.75;22.75;;;;;13.73;100.00;102799.03;2095403;28;46365;-69
2024/02/02 04:01:10;;;;;;;;;22.00;19.00;;;;;13.73;100.00;102804.38;2095768;28;46022;-71
2024/02/02 04:02:11;;;;;;;;;19.00;17.67;;;;;13.72;100.00;102801.69;2096363;28;46729;-71
2024/02/02 04:03:11;;;;;;;;;20.75;18.75;;;;;13.71;100.00;102805.25;2095694;28;46325;-71
2024/02/02 04:04:11;;;;;;;;;18.00;16.00;;;;;13.70;100.00;102804.34;2095513;28;45357;-71
2024/02/02 04:05:12;;;;;;;;;14.67;14.67;;;;;13.70;100.00;102814.16;2094592;28;45937;-70
2024/02/02 04:06:12;;;;;;;;;12.33;11.67;;;;;13.71;100.00;102810.59;2096327;28;46996;-70
2024/02/02 04:07:12;;;;;;;;;18.33;16.33;;;;;13.74;100.00;102808.81;2095995;28;46275;-69
2024/02/02 04:08:13;;;;;;;;;15.33;14.33;;;;;13.74;100.00;102806.16;2095317;28;46113;-71
2024/02/02 04:09:13;;;;;;;;;16.67;14.67;;;;;13.75;100.00;102804.38;2095427;28;46605;-70
2024/02/02 04:10:15;;;;;;;;;17.00;13.33;;;;;13.76;100.00;102808.81;2094263;28;46644;-70
2024/02/02 04:11:15;;;;;;;;;15.50;13.25;;;;;13.74;100.00;102802.59;2094770;28;46607;-70
2024/02/02 04:12:15;;;;;;;;;18.33;16.67;;;;;13.74;100.00;102807.94;2096603;28;46552;-70
2024/02/02 04:13:16;;;;;;;;;18.67;16.67;;;;;13.75;100.00;102804.38;2096199;28;46480;-69
2024/02/02 04:14:16;;;;;;;;;18.33;14.00;;;;;13.74;100.00;102808.81;2096091;28;46732;-71
2024/02/02 04:15:16;;;;;;;;;13.33;13.00;;;;;13.76;100.00;102808.81;2097029;28;46557;-71
2024/02/02 04:16:17;;;;;;;;;15.67;13.67;;;;;13.76;100.00;102807.03;2096060;28;46434;-70
2024/02/02 04:17:17;;;;;;;;;13.00;12.00;;;;;13.74;100.00;102806.16;2096626;28;45394;-69
2024/02/02 04:18:17;;;;;;;;;15.67;14.00;;;;;13.73;100.00;102807.06;2095851;28;45857;-69
2024/02/02 04:19:19;;;;;;;;;17.67;15.00;;;;;13.72;100.00;102799.94;2095658;28;46391;-71
2024/02/02 04:20:19;;;;;;;;;14.00;12.50;;;;;13.71;100.00;102803.47;2095855;28;46880;-68
2024/02/02 04:21:20;;;;;;;;;16.00;14.67;;;;;13.69;100.00;102797.25;2096341;28;46228;-70
2024/02/02 04:22:20;;;;;;;;;15.33;13.67;;;;;13.71;100.00;102798.13;2095460;28;45599;-71
2024/02/02 04:23:20;;;;;;;;;15.67;12.00;;;;;13.70;100.00;102791.00;2095722;28;46785;-69
2024/02/02 04:24:21;;;;;;;;;15.67;14.67;;;;;13.69;100.00;102791.91;2095159;28;45463;-71
2024/02/02 04:25:21;;;;;;;;;12.00;12.00;;;;;13.68;100.00;102787.47;2096026;28;46581;-70
2024/02/02 04:26:21;;;;;;;;;13.67;12.00;;;;;13.67;100.00;102785.69;2096136;28;46217;-70
2024/02/02 04:27:22;;;;;;;;;13.00;11.33;;;;;13.63;100.00;102794.59;2096069;28;47041;-69
2024/02/02 04:28:22;;;;;;;;;13.33;13.33;;;;;13.68;100.00;102787.47;2102602;28;46257;-70
2024/02/02 04:29:22;;;;;;;;;12.00;11.00;;;;;13.71;100.00;102797.25;2104345;28;46200;-70
2024/02/02 04:30:23;;;;;;;;;14.00;12.00;;;;;13.84;100.00;102796.31;2096386;28;45769;-71
2024/02/02 04:31:23;;;;;;;;;9.67;9.00;;;;;13.92;100.00;102799.00;2095969;28;46365;-70
2024/02/02 04:32:24;;;;;;;;;10.67;10.67;;;;;13.89;100.00;102799.91;2095412;28;46556;-70
2024/02/02 04:33:24;;;;;;;;;12.67;11.33;;;;;13.86;100.00;102802.56;2096067;28;46752;-69